createdAt,value
2023-03-25T00:02:06.439Z,7.92
2023-03-25T00:04:35.180Z,8.08
2023-03-25T00:07:02.523Z,7.98
2023-03-25T00:09:28.982Z,7.95
2023-03-25T00:11:55.659Z,8.01
2023-03-25T00:14:22.106Z,7.88
2023-03-25T00:16:48.798Z,8.01
2023-03-25T00:19:18.324Z,8.04
2023-03-25T00:21:44.802Z,7.94
2023-03-25T00:24:12.408Z,7.74
2023-03-25T00:26:42.742Z,7.92
2023-03-25T00:29:09.805Z,7.94
2023-03-25T00:31:36.330Z,8.05
2023-03-25T00:34:02.806Z,7.93
2023-03-25T00:36:29.623Z,7.96
2023-03-25T00:38:56.167Z,8.14
2023-03-25T00:41:26.028Z,7.94
2023-03-25T00:43:57.954Z,8.03
2023-03-25T00:46:29.501Z,7.97
2023-03-25T00:48:57.157Z,8.10
2023-03-25T00:51:25.753Z,8.28
2023-03-25T00:53:54.887Z,8.26
2023-03-25T00:56:22.589Z,8.26
2023-03-25T00:58:50.339Z,8.27
2023-03-25T01:01:23.356Z,8.45
2023-03-25T01:03:57.978Z,8.42
2023-03-25T01:06:32.214Z,8.48
2023-03-25T01:09:00.484Z,8.46
2023-03-25T01:11:30.267Z,8.49
2023-03-25T01:13:59.745Z,8.53
2023-03-25T01:16:26.601Z,8.55
2023-03-25T01:18:54.898Z,8.34
2023-03-25T01:21:21.401Z,8.49
2023-03-25T01:23:47.963Z,8.42
2023-03-25T01:26:14.716Z,8.65
2023-03-25T01:28:43.204Z,8.72
2023-03-25T01:31:13.719Z,8.69
2023-03-25T01:33:40.599Z,8.57
2023-03-25T01:36:12.709Z,8.79
2023-03-25T01:38:40.528Z,8.67
2023-03-25T01:41:08.275Z,8.66
2023-03-25T01:43:34.964Z,8.56
2023-03-25T01:46:01.982Z,8.34
2023-03-25T01:48:35.803Z,8.52
2023-03-25T01:51:11.568Z,8.59
2023-03-25T01:53:39.112Z,8.70
2023-03-25T01:56:06.799Z,8.75
2023-03-25T01:58:35.562Z,8.60
2023-03-25T02:01:03.477Z,8.64
2023-03-25T02:03:31.478Z,8.80
2023-03-25T02:06:05.855Z,8.67
2023-03-25T02:08:37.684Z,8.60
2023-03-25T02:11:06.725Z,8.70
2023-03-25T02:13:36.683Z,8.72
2023-03-25T02:16:18.525Z,8.64
2023-03-25T02:19:14.486Z,8.70
2023-03-25T02:22:04.585Z,8.59
2023-03-25T02:25:01.915Z,8.42
2023-03-25T02:27:50.267Z,8.56
2023-03-25T02:30:38.859Z,8.50
2023-03-25T02:33:16.917Z,8.50
2023-03-25T02:36:04.857Z,8.48
2023-03-25T02:38:49.858Z,8.38
2023-03-25T02:41:21.160Z,8.29
2023-03-25T02:44:00.132Z,8.25
2023-03-25T02:46:28.190Z,8.26
2023-03-25T02:49:15.479Z,8.25
2023-03-25T02:51:49.643Z,8.27
2023-03-25T02:54:19.190Z,8.16
2023-03-25T02:56:48.436Z,8.22
2023-03-25T02:59:15.679Z,8.18
2023-03-25T03:01:42.626Z,8.15
2023-03-25T03:04:09.172Z,8.04
2023-03-25T03:06:39.910Z,8.13
2023-03-25T03:09:22.923Z,8.10
2023-03-25T03:12:25.859Z,8.10
2023-03-25T03:15:10.738Z,8.17
2023-03-25T03:18:07.824Z,8.01
2023-03-25T03:20:41.202Z,8.07
2023-03-25T03:23:17.974Z,8.00
2023-03-25T03:25:51.402Z,7.95
2023-03-25T03:28:27.770Z,7.95
2023-03-25T03:31:11.350Z,7.81
2023-03-25T03:33:53.936Z,7.85
2023-03-25T03:36:25.172Z,7.74
2023-03-25T03:39:16.571Z,7.71
2023-03-25T03:41:46.551Z,7.68
2023-03-25T03:44:18.796Z,7.57
2023-03-25T03:46:55.250Z,7.40
2023-03-25T03:49:29.429Z,7.53
2023-03-25T03:52:17.005Z,7.50
2023-03-25T03:54:54.572Z,7.49
2023-03-25T03:57:27.029Z,7.32
2023-03-25T04:00:06.744Z,7.33
2023-03-25T04:02:47.807Z,7.32
2023-03-25T04:05:17.658Z,7.31
2023-03-25T04:07:54.699Z,7.27
2023-03-25T04:10:23.099Z,7.21
2023-03-25T04:12:54.051Z,7.21
2023-03-25T04:15:21.404Z,7.18
2023-03-25T04:17:50.784Z,7.19
2023-03-25T04:20:26.254Z,7.30
2023-03-25T04:22:52.891Z,7.16
2023-03-25T04:25:21.410Z,7.07
2023-03-25T04:27:53.694Z,7.14
2023-03-25T04:30:21.159Z,7.13
2023-03-25T04:32:47.809Z,7.13
2023-03-25T04:35:19.215Z,7.16
2023-03-25T04:37:48.855Z,7.21
2023-03-25T04:40:18.648Z,7.32
2023-03-25T04:42:46.451Z,7.14
2023-03-25T04:45:16.493Z,7.18
2023-03-25T04:47:47.057Z,7.26
2023-03-25T04:50:23.379Z,7.01
2023-03-25T04:52:51.055Z,7.09
2023-03-25T04:55:19.299Z,7.08
2023-03-25T04:57:47.517Z,7.13
2023-03-25T05:00:16.010Z,7.16
2023-03-25T05:02:47.886Z,7.13
2023-03-25T05:05:18.898Z,7.21
2023-03-25T05:07:47.156Z,7.26
2023-03-25T05:10:14.157Z,7.16
2023-03-25T05:12:40.799Z,7.26
2023-03-25T05:15:09.265Z,7.36
2023-03-25T05:17:35.850Z,7.27
2023-03-25T05:20:06.086Z,7.31
2023-03-25T05:22:32.744Z,7.23
2023-03-25T05:24:59.159Z,7.23
2023-03-25T05:27:25.795Z,7.35
2023-03-25T05:29:52.306Z,7.33
2023-03-25T05:32:18.733Z,7.29
2023-03-25T05:34:48.687Z,7.41
2023-03-25T05:37:15.239Z,7.36
2023-03-25T05:39:42.735Z,7.43
2023-03-25T05:42:10.804Z,7.55
2023-03-25T05:44:38.665Z,7.61
2023-03-25T05:47:06.036Z,7.72
2023-03-25T05:49:32.459Z,7.69
2023-03-25T05:52:01.770Z,7.64
2023-03-25T05:54:28.476Z,7.60
2023-03-25T05:56:54.966Z,7.64
2023-03-25T05:59:21.668Z,7.61
2023-03-25T06:01:49.975Z,7.63
2023-03-25T06:04:16.815Z,7.57
2023-03-25T06:06:43.453Z,7.61
2023-03-25T06:09:10.275Z,7.77
2023-03-25T06:11:39.729Z,7.72
2023-03-25T06:14:06.993Z,7.67
2023-03-25T06:16:33.899Z,7.57
2023-03-25T06:19:00.653Z,7.65
2023-03-25T06:21:29.168Z,7.69
2023-03-25T06:23:58.222Z,7.69
2023-03-25T06:26:25.266Z,7.64
2023-03-25T06:28:52.065Z,7.72
2023-03-25T06:31:22.547Z,7.63
2023-03-25T06:33:50.784Z,7.45
2023-03-25T06:36:20.296Z,7.51
2023-03-25T06:38:49.198Z,7.68
2023-03-25T06:41:21.063Z,7.57
2023-03-25T06:43:58.327Z,7.65
2023-03-25T06:46:27.848Z,7.59
2023-03-25T06:49:17.930Z,7.55
2023-03-25T06:51:44.400Z,7.50
2023-03-25T06:54:10.924Z,7.41
2023-03-25T06:56:37.730Z,7.43
2023-03-25T06:59:05.214Z,7.32
2023-03-25T07:01:31.855Z,7.30
2023-03-25T07:03:58.312Z,7.33
2023-03-25T07:06:25.055Z,7.43
2023-03-25T07:08:52.140Z,7.48
2023-03-25T07:11:26.852Z,7.40
2023-03-25T07:13:54.015Z,7.43
2023-03-25T07:16:22.127Z,7.35
2023-03-25T07:18:50.190Z,7.29
2023-03-25T07:21:17.200Z,7.26
2023-03-25T07:23:43.663Z,7.98
2023-03-25T07:26:10.582Z,8.60
2023-03-25T07:28:38.100Z,8.59
2023-03-25T07:31:10.341Z,8.22
2023-03-25T07:33:37.186Z,7.88
2023-03-25T07:38:33.358Z,7.57
2023-03-25T07:40:59.809Z,7.40
2023-03-25T07:43:26.419Z,7.22
2023-03-25T07:45:55.569Z,7.26
2023-03-25T07:48:22.780Z,7.57
2023-03-25T07:50:52.116Z,8.02
2023-03-25T07:53:18.608Z,8.08
2023-03-25T07:55:45.738Z,7.85
2023-03-25T07:58:12.646Z,7.68
2023-03-25T08:00:39.102Z,7.48
2023-03-25T08:03:06.565Z,7.72
2023-03-25T08:05:33.200Z,7.82
2023-03-25T08:08:00.196Z,7.99
2023-03-25T08:10:27.361Z,8.14
2023-03-25T08:12:54.003Z,8.23
2023-03-25T08:15:24.391Z,8.23
2023-03-25T08:17:54.318Z,8.13
2023-03-25T08:20:21.131Z,7.97
2023-03-25T08:22:48.039Z,8.07
2023-03-25T08:25:14.632Z,8.14
2023-03-25T08:27:41.311Z,8.30
2023-03-25T08:30:10.466Z,8.36
2023-03-25T08:32:38.432Z,8.72
2023-03-25T08:35:06.092Z,8.59
2023-03-25T08:37:37.768Z,8.68
2023-03-25T08:40:09.696Z,8.68
2023-03-25T08:42:38.289Z,8.79
2023-03-25T08:45:05.789Z,8.93
2023-03-25T08:47:32.498Z,8.92
2023-03-25T08:49:59.014Z,8.85
2023-03-25T08:52:25.515Z,8.88
2023-03-25T08:54:52.365Z,8.68
2023-03-25T08:57:18.820Z,8.77
2023-03-25T08:59:45.253Z,8.69
2023-03-25T09:02:12.695Z,8.67
2023-03-25T09:04:39.226Z,8.49
2023-03-25T09:07:12.540Z,8.31
2023-03-25T09:09:42.518Z,8.36
2023-03-25T09:12:09.467Z,8.28
2023-03-25T09:14:36.376Z,8.53
2023-03-25T09:17:03.476Z,8.64
2023-03-25T09:19:30.041Z,8.62
2023-03-25T09:21:56.443Z,8.79
2023-03-25T09:24:23.932Z,8.94
2023-03-25T09:26:50.570Z,9.15
2023-03-25T09:29:17.247Z,9.38
2023-03-25T09:31:43.774Z,9.63
2023-03-25T09:34:10.245Z,9.65
2023-03-25T09:36:37.151Z,9.78
2023-03-25T09:39:03.825Z,9.68
2023-03-25T09:42:17.787Z,9.72
2023-03-25T09:45:09.873Z,9.75
2023-03-25T09:47:41.213Z,9.81
2023-03-25T09:50:14.402Z,9.90
2023-03-25T09:53:14.674Z,9.93
2023-03-25T09:55:44.837Z,9.91
2023-03-25T09:58:23.844Z,10.09
2023-03-25T10:00:56.849Z,10.17
2023-03-25T10:03:35.545Z,10.03
2023-03-25T10:06:13.256Z,9.86
2023-03-25T10:09:12.125Z,9.89
2023-03-25T10:11:57.764Z,10.20
2023-03-25T10:14:36.400Z,10.13
2023-03-25T10:17:10.690Z,10.21
2023-03-25T10:20:30.437Z,10.40
2023-03-25T10:23:21.731Z,10.52
2023-03-25T10:25:56.146Z,10.47
2023-03-25T10:28:31.166Z,10.28
2023-03-25T10:30:57.658Z,10.25
2023-03-25T10:33:31.811Z,10.11
2023-03-25T10:36:00.385Z,10.00
2023-03-25T10:38:26.917Z,10.14
2023-03-25T10:41:26.815Z,10.03
2023-03-25T10:43:53.972Z,10.18
2023-03-25T10:46:32.536Z,10.29
2023-03-25T10:48:59.123Z,9.90
2023-03-25T10:51:28.755Z,10.09
2023-03-25T10:53:55.540Z,10.04
2023-03-25T10:56:26.389Z,10.24
2023-03-25T10:58:55.783Z,10.28
2023-03-25T11:01:39.032Z,10.51
2023-03-25T11:04:09.056Z,10.82
2023-03-25T11:06:42.219Z,10.54
2023-03-25T11:09:32.516Z,10.53
2023-03-25T11:12:06.352Z,10.72
2023-03-25T11:14:41.243Z,10.71
2023-03-25T11:17:14.871Z,10.58
2023-03-25T11:19:52.538Z,10.26
2023-03-25T11:22:24.520Z,10.25
2023-03-25T11:24:57.204Z,10.21
2023-03-25T11:27:26.498Z,10.33
2023-03-25T11:29:56.950Z,10.10
2023-03-25T11:32:31.760Z,10.31
2023-03-25T11:35:03.460Z,10.58
2023-03-25T11:37:32.817Z,10.55
2023-03-25T11:40:06.299Z,10.80
2023-03-25T11:42:40.067Z,10.59
2023-03-25T11:45:08.015Z,10.77
2023-03-25T11:47:38.044Z,10.82
2023-03-25T11:50:05.834Z,10.59
2023-03-25T11:52:45.400Z,10.42
2023-03-25T11:55:47.396Z,10.23
2023-03-25T11:58:21.880Z,10.23
2023-03-25T12:00:50.743Z,10.31
2023-03-25T12:03:20.721Z,10.36
2023-03-25T12:05:59.763Z,10.25
2023-03-25T12:08:30.273Z,10.20
2023-03-25T12:11:10.303Z,10.52
2023-03-25T12:14:04.089Z,10.68
2023-03-25T12:16:44.040Z,10.89
2023-03-25T12:19:10.392Z,11.11
2023-03-25T12:22:08.045Z,10.81
2023-03-25T12:24:59.468Z,10.80
2023-03-25T12:27:42.579Z,10.80
2023-03-25T12:30:25.417Z,10.76
2023-03-25T12:32:57.967Z,10.67
2023-03-25T12:35:49.814Z,10.43
2023-03-25T12:38:29.803Z,10.40
2023-03-25T12:41:16.606Z,10.52
2023-03-25T12:44:01.806Z,10.53
2023-03-25T12:46:46.936Z,10.57
2023-03-25T12:49:22.301Z,10.66
2023-03-25T12:52:18.462Z,10.62
2023-03-25T12:54:55.008Z,10.63
2023-03-25T12:57:45.479Z,10.62
2023-03-25T13:00:25.538Z,10.63
2023-03-25T13:03:13.887Z,10.90
2023-03-25T13:06:11.807Z,10.97
2023-03-25T13:09:05.939Z,10.63
2023-03-25T13:11:41.557Z,10.82
2023-03-25T13:14:31.137Z,10.71
2023-03-25T13:17:02.753Z,10.95
2023-03-25T13:19:32.816Z,11.03
2023-03-25T13:22:05.662Z,10.96
2023-03-25T13:24:45.783Z,10.67
2023-03-25T13:27:13.724Z,10.68
2023-03-25T13:29:47.391Z,10.65
2023-03-25T13:32:36.649Z,10.84
2023-03-25T13:35:09.034Z,10.92
2023-03-25T13:37:42.171Z,10.81
2023-03-25T13:40:34.073Z,10.60
2023-03-25T13:43:13.334Z,10.68
2023-03-25T13:45:51.045Z,10.82
2023-03-25T13:48:36.934Z,10.98
2023-03-25T13:51:04.387Z,10.93
2023-03-25T13:53:37.667Z,10.81
2023-03-25T13:56:07.120Z,10.69
2023-03-25T13:59:18.558Z,10.71
2023-03-25T14:02:15.910Z,10.70
2023-03-25T14:05:10.763Z,10.59
2023-03-25T14:07:53.310Z,10.60
2023-03-25T14:10:53.866Z,10.71
2023-03-25T14:13:35.376Z,10.71
2023-03-25T14:16:12.623Z,10.64
2023-03-25T14:18:46.697Z,10.59
2023-03-25T14:21:22.302Z,10.60
2023-03-25T14:23:59.730Z,10.61
2023-03-25T14:26:26.417Z,10.67
2023-03-25T14:28:57.778Z,10.65
2023-03-25T14:31:30.950Z,10.61
2023-03-25T14:34:00.686Z,10.70
2023-03-25T14:36:40.664Z,10.58
2023-03-25T14:39:29.574Z,10.63
2023-03-25T14:42:01.894Z,10.65
2023-03-25T14:44:34.230Z,10.69
2023-03-25T14:47:27.620Z,10.92
2023-03-25T14:50:06.599Z,10.91
2023-03-25T14:52:48.065Z,10.80
2023-03-25T14:55:40.915Z,10.76
2023-03-25T14:58:24.942Z,10.93
2023-03-25T15:01:04.238Z,10.90
2023-03-25T15:03:36.359Z,10.90
2023-03-25T15:06:04.401Z,11.13
2023-03-25T15:08:36.985Z,11.18
2023-03-25T15:11:09.131Z,10.90
2023-03-25T15:13:46.649Z,11.06
2023-03-25T15:16:37.654Z,11.02
2023-03-25T15:19:11.556Z,10.85
2023-03-25T15:21:56.826Z,11.05
2023-03-25T15:24:33.383Z,11.24
2023-03-25T15:27:06.368Z,11.37
2023-03-25T15:30:00.652Z,11.41
2023-03-25T15:32:50.887Z,11.26
2023-03-25T15:35:29.547Z,11.18
2023-03-25T15:38:34.740Z,11.14
2023-03-25T15:41:36.256Z,10.76
2023-03-25T15:44:39.944Z,10.71
2023-03-25T15:47:21.661Z,10.53
2023-03-25T15:49:54.174Z,10.55
2023-03-25T15:52:40.045Z,10.53
2023-03-25T15:55:14.538Z,10.44
2023-03-25T15:58:02.191Z,10.22
2023-03-25T16:00:50.794Z,10.32
2023-03-25T16:03:25.702Z,10.34
2023-03-25T16:05:56.441Z,10.36
2023-03-25T16:08:30.833Z,10.55
2023-03-25T16:10:57.321Z,10.55
2023-03-25T16:13:24.232Z,10.78
2023-03-25T16:15:55.584Z,10.61
2023-03-25T16:18:24.436Z,10.51
2023-03-25T16:21:00.931Z,10.19
2023-03-25T16:23:29.345Z,10.40
2023-03-25T16:25:56.498Z,10.14
2023-03-25T16:28:33.703Z,10.24
2023-03-25T16:31:02.719Z,10.10
2023-03-25T16:33:31.852Z,10.18
2023-03-25T16:36:04.197Z,10.17
2023-03-25T16:38:32.292Z,10.02
2023-03-25T16:41:12.893Z,9.83
2023-03-25T16:43:39.790Z,9.78
2023-03-25T16:46:08.671Z,10.03
2023-03-25T16:48:47.444Z,10.00
2023-03-25T16:51:25.482Z,10.09
2023-03-25T16:53:55.898Z,10.06
2023-03-25T16:56:38.996Z,10.03
2023-03-25T16:59:20.277Z,10.10
2023-03-25T17:01:55.672Z,10.08
2023-03-25T17:04:29.973Z,10.10
2023-03-25T17:07:01.111Z,10.06
2023-03-25T17:09:34.206Z,9.93
2023-03-25T17:12:02.612Z,9.93
2023-03-25T17:14:36.961Z,9.78
2023-03-25T17:17:19.253Z,9.76
2023-03-25T17:19:49.939Z,9.62
2023-03-25T17:22:32.255Z,9.55
2023-03-25T17:25:15.592Z,9.34
2023-03-25T17:27:43.447Z,9.22
2023-03-25T17:30:28.279Z,9.17
2023-03-25T17:33:10.345Z,9.33
2023-03-25T17:35:39.110Z,9.02
2023-03-25T17:38:06.086Z,8.97
2023-03-25T17:40:33.176Z,8.93
2023-03-25T17:43:00.121Z,8.91
2023-03-25T17:45:26.588Z,8.91
2023-03-25T17:47:53.104Z,8.70
2023-03-25T17:50:22.295Z,8.66
2023-03-25T17:52:48.871Z,8.47
2023-03-25T17:55:15.461Z,8.41
2023-03-25T17:57:42.444Z,8.39
2023-03-25T18:00:15.211Z,8.28
2023-03-25T18:02:41.669Z,8.41
2023-03-25T18:05:10.572Z,8.29
2023-03-25T18:07:37.232Z,8.25
2023-03-25T18:10:13.948Z,8.26
2023-03-25T18:12:41.485Z,8.14
2023-03-25T18:15:08.599Z,8.18
2023-03-25T18:17:35.405Z,8.10
2023-03-25T18:20:02.071Z,8.13
2023-03-25T18:22:28.515Z,8.12
2023-03-25T18:24:54.940Z,7.98
2023-03-25T18:27:27.805Z,8.01
2023-03-25T18:30:00.232Z,8.02
2023-03-25T18:32:27.069Z,7.94
2023-03-25T18:34:53.963Z,8.13
2023-03-25T18:37:20.749Z,8.02
2023-03-25T18:39:47.160Z,7.81
2023-03-25T18:42:13.635Z,7.96
2023-03-25T18:44:40.399Z,7.98
2023-03-25T18:47:08.582Z,7.87
2023-03-25T18:49:35.302Z,7.93
2023-03-25T18:52:03.165Z,7.95
2023-03-25T18:54:29.577Z,7.84
2023-03-25T18:56:56.719Z,7.80
2023-03-25T18:59:23.835Z,7.83
2023-03-25T19:01:50.908Z,7.88
2023-03-25T19:04:18.143Z,7.70
2023-03-25T19:06:44.715Z,7.72
2023-03-25T19:09:22.608Z,7.71
2023-03-25T19:11:49.629Z,7.67
2023-03-25T19:14:16.125Z,7.70
2023-03-25T19:16:48.107Z,7.55
2023-03-25T19:19:21.288Z,7.62
2023-03-25T19:21:47.916Z,7.59
2023-03-25T19:24:14.664Z,7.41
2023-03-25T19:26:41.512Z,7.53
2023-03-25T19:29:08.608Z,7.60
2023-03-25T19:31:35.103Z,7.47
2023-03-25T19:34:02.201Z,7.55
2023-03-25T19:36:28.635Z,7.49
2023-03-25T19:38:58.709Z,7.58
2023-03-25T19:41:25.291Z,7.40
2023-03-25T19:43:51.749Z,7.41
2023-03-25T19:46:19.088Z,7.43
2023-03-25T19:48:46.452Z,7.41
2023-03-25T19:51:12.965Z,7.38
2023-03-25T19:53:39.550Z,7.37
2023-03-25T19:56:06.295Z,7.26
2023-03-25T19:58:34.629Z,7.37
2023-03-25T20:01:01.510Z,7.23
2023-03-25T20:03:31.195Z,7.38
2023-03-25T20:05:59.889Z,7.38
2023-03-25T20:08:26.669Z,7.46
2023-03-25T20:10:53.738Z,7.24
2023-03-25T20:13:20.791Z,7.36
2023-03-25T20:15:48.833Z,7.24
2023-03-25T20:18:15.876Z,7.29
2023-03-25T20:20:42.571Z,7.36
2023-03-25T20:23:09.356Z,7.22
2023-03-25T20:25:36.400Z,7.25
2023-03-25T20:28:02.981Z,7.23
2023-03-25T20:30:29.504Z,7.36
2023-03-25T20:32:55.972Z,7.27
2023-03-25T20:35:22.625Z,7.21
2023-03-25T20:37:49.267Z,7.15
2023-03-25T20:40:17.646Z,7.25
2023-03-25T20:42:46.225Z,7.36
2023-03-25T20:45:15.128Z,7.22
2023-03-25T20:47:42.375Z,7.22
2023-03-25T20:50:10.774Z,7.17
2023-03-25T20:52:38.037Z,7.21
2023-03-25T20:55:05.722Z,7.17
2023-03-25T20:57:32.609Z,7.14
2023-03-25T20:59:59.173Z,7.25
2023-03-25T21:02:25.705Z,7.21
2023-03-25T21:04:55.136Z,7.32
2023-03-25T21:07:23.798Z,7.35
2023-03-25T21:09:50.300Z,7.33
2023-03-25T21:12:17.137Z,7.51
2023-03-25T21:14:43.790Z,7.40
2023-03-25T21:17:10.773Z,7.37
2023-03-25T21:19:37.492Z,7.34
2023-03-25T21:22:04.300Z,7.42
2023-03-25T21:24:34.291Z,7.40
2023-03-25T21:27:00.762Z,7.36
2023-03-25T21:29:27.490Z,7.26
2023-03-25T21:31:54.390Z,7.50
2023-03-25T21:34:22.131Z,7.36
2023-03-25T21:36:49.047Z,7.33
2023-03-25T21:39:15.689Z,7.39
2023-03-25T21:41:42.490Z,7.27
2023-03-25T21:44:10.101Z,7.32
2023-03-25T21:46:36.702Z,7.31
2023-03-25T21:49:03.897Z,7.38
2023-03-25T21:51:32.158Z,7.29
2023-03-25T21:53:59.676Z,7.25
2023-03-25T21:56:30.276Z,7.28
2023-03-25T21:58:57.490Z,7.25
2023-03-25T22:01:28.677Z,7.37
2023-03-25T22:03:57.430Z,7.28
2023-03-25T22:06:29.839Z,7.13
2023-03-25T22:08:57.137Z,7.27
2023-03-25T22:11:28.995Z,7.23
2023-03-25T22:13:55.905Z,7.09
2023-03-25T22:16:22.686Z,6.93
2023-03-25T22:18:49.514Z,7.02
2023-03-25T22:21:18.622Z,7.10
2023-03-25T22:23:47.288Z,7.10
2023-03-25T22:26:16.145Z,6.98
2023-03-25T22:28:43.451Z,6.96
2023-03-25T22:31:10.392Z,6.76
2023-03-25T22:33:37.741Z,6.83
2023-03-25T22:36:11.702Z,7.03
2023-03-25T22:38:51.299Z,6.77
2023-03-25T22:41:18.668Z,6.77
2023-03-25T22:43:46.342Z,6.87
2023-03-25T22:46:13.779Z,6.74
2023-03-25T22:48:40.894Z,6.76
2023-03-25T22:51:09.389Z,6.81
2023-03-25T22:53:35.888Z,6.82
2023-03-25T22:56:02.433Z,6.74
2023-03-25T22:58:30.908Z,6.80
2023-03-25T23:00:59.552Z,6.76
2023-03-25T23:03:27.390Z,6.82
2023-03-25T23:06:00.277Z,6.58
2023-03-25T23:08:32.212Z,6.68
2023-03-25T23:11:00.743Z,6.59
2023-03-25T23:13:29.982Z,6.42
2023-03-25T23:16:01.268Z,6.55
2023-03-25T23:18:28.603Z,6.54
2023-03-25T23:20:56.248Z,6.55
2023-03-25T23:23:24.541Z,6.40
2023-03-25T23:26:03.621Z,6.47
2023-03-25T23:28:34.245Z,6.32
2023-03-25T23:31:01.680Z,6.54
2023-03-25T23:33:28.258Z,6.43
2023-03-25T23:36:00.423Z,6.51
2023-03-25T23:38:27.761Z,6.51
2023-03-25T23:41:10.904Z,6.51
2023-03-25T23:43:37.779Z,6.55
2023-03-25T23:46:06.359Z,6.65
2023-03-25T23:48:40.509Z,6.67
2023-03-25T23:51:10.464Z,6.80
2023-03-25T23:53:39.178Z,6.79
2023-03-25T23:56:07.076Z,6.77
2023-03-25T23:58:34.202Z,6.80
